UAE21K OMDB-UUDD
Flight info
| Callsign | UAE21K |
|---|---|
| Flight time | N/A |
| Altitude | 36000 |
| Route | RIDAP M557 TUMAK L602 ALPET L718 TAGRU/N0484F370 DCT OTALO/N0480F360 DCT RER DCT EMIDO L718 KABAN UR21 SRT UM860 KONUK/N0481F370 UW88 ERN UT166 PIXAP UW88 TBN/N0475F360 UR114 TUDEK/K0878F360 B950 KARAT L91 NZ W79 AMEPU A100 KL L91 KANON T748 PEPOR T611 TUKMO N50 OLOPI OLOPI3L |
| Aircraft | A388/J-SADE2E3FGHIJ3J4J5M1RWXY/LB1D1 |
Departure
| Time | 2026-04-20 07:01 |
|---|---|
| Airport | Dubai International Airport (OMDB) |
Arrival
| Time | N/A |
|---|---|
| Airport | Domodedovo International Airport (UUDD) |
| Time | Latitude | Longitude | Altitude | Speed | Heading |
|---|---|---|---|---|---|
| 2026-04-20 06:30 | 25.25480 | 55.35018 | 23 ft | 0 kts | 121° |
| 2026-04-20 06:44 | 25.25483 | 55.35013 | 24 ft | 3 kts | 121° |
| 2026-04-20 06:44 | 25.25493 | 55.34995 | 27 ft | 3 kts | 121° |
| 2026-04-20 06:44 | 25.25502 | 55.34978 | 30 ft | 3 kts | 121° |
| 2026-04-20 06:45 | 25.25511 | 55.34961 | 30 ft | 3 kts | 121° |
| 2026-04-20 06:45 | 25.25520 | 55.34945 | 30 ft | 2 kts | 121° |
| 2026-04-20 06:45 | 25.25529 | 55.34929 | 30 ft | 2 kts | 121° |
| 2026-04-20 06:45 | 25.25535 | 55.34917 | 29 ft | 0 kts | 121° |
| 2026-04-20 06:50 | 25.25532 | 55.34924 | 29 ft | 4 kts | 121° |
| 2026-04-20 06:50 | 25.25523 | 55.34941 | 30 ft | 4 kts | 112° |
| 2026-04-20 06:50 | 25.25521 | 55.34975 | 30 ft | 3 kts | 59° |
| 2026-04-20 06:50 | 25.25529 | 55.34982 | 30 ft | 2 kts | 15° |
| 2026-04-20 06:51 | 25.25556 | 55.34986 | 31 ft | 6 kts | 7° |
| 2026-04-20 06:51 | 25.25607 | 55.35001 | 28 ft | 9 kts | 33° |
| 2026-04-20 06:51 | 25.25668 | 55.35044 | 29 ft | 12 kts | 31° |
| 2026-04-20 06:51 | 25.25732 | 55.35100 | 27 ft | 9 kts | 84° |
| 2026-04-20 06:52 | 25.25707 | 55.35181 | 27 ft | 14 kts | 115° |
| 2026-04-20 06:52 | 25.25654 | 55.35285 | 25 ft | 18 kts | 121° |
| 2026-04-20 06:52 | 25.25585 | 55.35410 | 21 ft | 21 kts | 122° |
| 2026-04-20 06:52 | 25.25505 | 55.35551 | 17 ft | 22 kts | 122° |
| 2026-04-20 06:53 | 25.25421 | 55.35699 | 17 ft | 20 kts | 120° |
| 2026-04-20 06:53 | 25.25348 | 55.35837 | 21 ft | 21 kts | 120° |
| 2026-04-20 06:53 | 25.25274 | 55.35978 | 21 ft | 21 kts | 120° |
| 2026-04-20 06:53 | 25.25200 | 55.36119 | 26 ft | 21 kts | 120° |
| 2026-04-20 06:54 | 25.25124 | 55.36260 | 29 ft | 21 kts | 123° |
| 2026-04-20 06:54 | 25.25042 | 55.36396 | 27 ft | 21 kts | 124° |
| 2026-04-20 06:54 | 25.24961 | 55.36533 | 29 ft | 21 kts | 118° |
| 2026-04-20 06:54 | 25.24887 | 55.36676 | 31 ft | 21 kts | 121° |
| 2026-04-20 06:55 | 25.24821 | 55.36819 | 33 ft | 20 kts | 100° |
| 2026-04-20 06:55 | 25.24816 | 55.36972 | 35 ft | 19 kts | 66° |
| 2026-04-20 06:55 | 25.24906 | 55.37070 | 36 ft | 18 kts | 26° |
| 2026-04-20 06:55 | 25.25025 | 55.37123 | 34 ft | 15 kts | 49° |
| 2026-04-20 06:56 | 25.25036 | 55.37225 | 39 ft | 14 kts | 107° |
| 2026-04-20 06:56 | 25.24991 | 55.37324 | 42 ft | 15 kts | 119° |
| 2026-04-20 06:56 | 25.24938 | 55.37427 | 44 ft | 16 kts | 122° |
| 2026-04-20 06:56 | 25.24870 | 55.37537 | 43 ft | 19 kts | 124° |
| 2026-04-20 06:57 | 25.24806 | 55.37667 | 44 ft | 19 kts | 122° |
| 2026-04-20 06:57 | 25.24733 | 55.37797 | 44 ft | 21 kts | 122° |
| 2026-04-20 06:57 | 25.24655 | 55.37934 | 46 ft | 21 kts | 122° |
| 2026-04-20 06:57 | 25.24612 | 55.38010 | 47 ft | 1 kts | 120° |
| 2026-04-20 06:58 | 25.24602 | 55.38030 | 46 ft | 5 kts | 118° |
| 2026-04-20 06:58 | 25.24580 | 55.38074 | 44 ft | 8 kts | 119° |
| 2026-04-20 06:58 | 25.24556 | 55.38134 | 47 ft | 4 kts | 74° |
| 2026-04-20 06:58 | 25.24571 | 55.38148 | 46 ft | 5 kts | 23° |
| 2026-04-20 06:59 | 25.24617 | 55.38171 | 45 ft | 9 kts | 25° |
| 2026-04-20 06:59 | 25.24683 | 55.38190 | 45 ft | 10 kts | 343° |
| 2026-04-20 06:59 | 25.24739 | 55.38135 | 45 ft | 13 kts | 304° |
| 2026-04-20 06:59 | 25.24793 | 55.38039 | 46 ft | 17 kts | 302° |
| 2026-04-20 07:00 | 25.24813 | 55.38005 | 45 ft | 0 kts | 302° |
| 2026-04-20 07:00 | 25.24878 | 55.37890 | 45 ft | 55 kts | 302° |
| 2026-04-20 07:00 | 25.25237 | 55.37245 | 44 ft | 138 kts | 301° |
| 2026-04-20 07:00 | 25.25804 | 55.36192 | 100 ft | 169 kts | 301° |
| 2026-04-20 07:01 | 25.26397 | 55.35245 | 1045 ft | 127 kts | 309° |
| 2026-04-20 07:01 | 25.27005 | 55.34543 | 1603 ft | 137 kts | 316° |
| 2026-04-20 07:01 | 25.27767 | 55.33792 | 1929 ft | 151 kts | 316° |
| 2026-04-20 07:01 | 25.28440 | 55.32827 | 2332 ft | 166 kts | 296° |
| 2026-04-20 07:02 | 25.28838 | 55.31591 | 2765 ft | 175 kts | 288° |
| 2026-04-20 07:02 | 25.29208 | 55.30363 | 3527 ft | 146 kts | 290° |
| 2026-04-20 07:02 | 25.29500 | 55.29363 | 4210 ft | 145 kts | 289° |
| 2026-04-20 07:02 | 25.29789 | 55.28249 | 4548 ft | 159 kts | 287° |
| 2026-04-20 07:03 | 25.30134 | 55.26955 | 4830 ft | 194 kts | 288° |
| 2026-04-20 07:03 | 25.30515 | 55.25470 | 5015 ft | 205 kts | 286° |
| 2026-04-20 07:03 | 25.30892 | 55.23868 | 5285 ft | 216 kts | 289° |
| 2026-04-20 07:03 | 25.31649 | 55.22537 | 5936 ft | 198 kts | 321° |
| 2026-04-20 07:04 | 25.32768 | 55.21744 | 6651 ft | 190 kts | 328° |
| 2026-04-20 07:04 | 25.33923 | 55.20948 | 7369 ft | 204 kts | 327° |
| 2026-04-20 07:04 | 25.35100 | 55.19948 | 7910 ft | 225 kts | 310° |
| 2026-04-20 07:04 | 25.35821 | 55.18345 | 8445 ft | 242 kts | 282° |
| 2026-04-20 07:05 | 25.35827 | 55.16448 | 8972 ft | 254 kts | 268° |
| 2026-04-20 07:05 | 25.35705 | 55.14421 | 9185 ft | 275 kts | 269° |
| 2026-04-20 07:05 | 25.35612 | 55.12251 | 9582 ft | 287 kts | 270° |
| 2026-04-20 07:05 | 25.35529 | 55.10032 | 10177 ft | 290 kts | 270° |
| 2026-04-20 07:06 | 25.35450 | 55.07737 | 10385 ft | 308 kts | 270° |
| 2026-04-20 07:06 | 25.35366 | 55.05301 | 10527 ft | 325 kts | 269° |
| 2026-04-20 07:06 | 25.35275 | 55.02745 | 10706 ft | 340 kts | 269° |
| 2026-04-20 07:06 | 25.35179 | 55.00114 | 11205 ft | 345 kts | 269° |
| 2026-04-20 07:07 | 25.35080 | 54.97446 | 11773 ft | 348 kts | 269° |
| 2026-04-20 07:07 | 25.34981 | 54.94767 | 12364 ft | 351 kts | 269° |
| 2026-04-20 07:07 | 25.34942 | 54.92971 | 12739 ft | 353 kts | 272° |
| 2026-04-20 07:07 | 25.35320 | 54.89351 | 13533 ft | 357 kts | 283° |
| 2026-04-20 07:08 | 25.35995 | 54.86736 | 14096 ft | 359 kts | 289° |
| 2026-04-20 07:08 | 25.36523 | 54.84965 | 14491 ft | 361 kts | 288° |
| 2026-04-20 07:08 | 25.37550 | 54.81407 | 15289 ft | 365 kts | 287° |
| 2026-04-20 07:08 | 25.38053 | 54.79644 | 15704 ft | 366 kts | 287° |
| 2026-04-20 07:09 | 25.38823 | 54.76939 | 16301 ft | 369 kts | 287° |
| 2026-04-20 07:09 | 25.39850 | 54.73332 | 17134 ft | 373 kts | 287° |
| 2026-04-20 07:09 | 25.40378 | 54.71479 | 17558 ft | 375 kts | 287° |
| 2026-04-20 07:09 | 25.41418 | 54.67828 | 18344 ft | 378 kts | 287° |
| 2026-04-20 07:10 | 25.42210 | 54.65046 | 18916 ft | 380 kts | 287° |
| 2026-04-20 07:10 | 25.42748 | 54.63155 | 19289 ft | 381 kts | 287° |
| 2026-04-20 07:10 | 25.43546 | 54.60355 | 19838 ft | 384 kts | 287° |
| 2026-04-20 07:10 | 25.44365 | 54.57571 | 20383 ft | 386 kts | 287° |
| 2026-04-20 07:11 | 25.45219 | 54.54707 | 20926 ft | 388 kts | 287° |
| 2026-04-20 07:11 | 25.46069 | 54.51858 | 21460 ft | 391 kts | 287° |
| 2026-04-20 07:11 | 25.46920 | 54.48994 | 21993 ft | 393 kts | 287° |
| 2026-04-20 07:11 | 25.47774 | 54.46108 | 22556 ft | 396 kts | 287° |
| 2026-04-20 07:12 | 25.48633 | 54.43201 | 23063 ft | 399 kts | 287° |
| 2026-04-20 07:12 | 25.49485 | 54.40311 | 23578 ft | 402 kts | 287° |
| 2026-04-20 07:12 | 25.50353 | 54.37364 | 24015 ft | 404 kts | 287° |
| 2026-04-20 07:12 | 25.51228 | 54.34392 | 24448 ft | 408 kts | 287° |
| 2026-04-20 07:13 | 25.52107 | 54.31401 | 24894 ft | 411 kts | 287° |
| 2026-04-20 07:13 | 25.52996 | 54.28378 | 25335 ft | 414 kts | 287° |
| 2026-04-20 07:13 | 25.53888 | 54.25339 | 25776 ft | 417 kts | 287° |
| 2026-04-20 07:13 | 25.54788 | 54.22274 | 26197 ft | 420 kts | 287° |
| 2026-04-20 07:14 | 25.55694 | 54.19187 | 26624 ft | 423 kts | 287° |
| 2026-04-20 07:14 | 25.56615 | 54.16048 | 27041 ft | 426 kts | 287° |
| 2026-04-20 07:14 | 25.57536 | 54.12907 | 27453 ft | 429 kts | 287° |
| 2026-04-20 07:14 | 25.58450 | 54.09787 | 27854 ft | 432 kts | 287° |
| 2026-04-20 07:15 | 25.59392 | 54.06568 | 28240 ft | 436 kts | 287° |
| 2026-04-20 07:15 | 25.60307 | 54.03400 | 28609 ft | 438 kts | 287° |
| 2026-04-20 07:15 | 25.61239 | 54.00128 | 28984 ft | 441 kts | 287° |
| 2026-04-20 07:15 | 25.62163 | 53.96874 | 29353 ft | 444 kts | 287° |
| 2026-04-20 07:16 | 25.63079 | 53.93649 | 29702 ft | 447 kts | 287° |
| 2026-04-20 07:16 | 25.64015 | 53.90355 | 30033 ft | 450 kts | 287° |
| 2026-04-20 07:16 | 25.64958 | 53.87038 | 30399 ft | 451 kts | 287° |
| 2026-04-20 07:16 | 25.65912 | 53.83680 | 30752 ft | 451 kts | 287° |
| 2026-04-20 07:17 | 25.66855 | 53.80359 | 31069 ft | 453 kts | 287° |
| 2026-04-20 07:17 | 25.67788 | 53.77070 | 31374 ft | 454 kts | 287° |
| 2026-04-20 07:17 | 25.68736 | 53.73725 | 31677 ft | 455 kts | 287° |
| 2026-04-20 07:17 | 25.69684 | 53.70370 | 31973 ft | 457 kts | 287° |
| 2026-04-20 07:18 | 25.70633 | 53.67000 | 32278 ft | 458 kts | 287° |
| 2026-04-20 07:18 | 25.71580 | 53.63627 | 32566 ft | 459 kts | 287° |
| 2026-04-20 07:18 | 25.72529 | 53.60245 | 32867 ft | 461 kts | 287° |
| 2026-04-20 07:18 | 25.73481 | 53.56849 | 33155 ft | 462 kts | 287° |
| 2026-04-20 07:19 | 25.74440 | 53.53429 | 33424 ft | 464 kts | 287° |
| 2026-04-20 07:19 | 25.75398 | 53.50007 | 33714 ft | 465 kts | 287° |
| 2026-04-20 07:19 | 25.76359 | 53.46582 | 33967 ft | 467 kts | 287° |
| 2026-04-20 07:19 | 25.77324 | 53.43144 | 34335 ft | 465 kts | 288° |
| 2026-04-20 07:20 | 25.78278 | 53.39744 | 34911 ft | 458 kts | 288° |
| 2026-04-20 07:20 | 25.79212 | 53.36409 | 35649 ft | 447 kts | 288° |
| 2026-04-20 07:20 | 25.80133 | 53.33117 | 35958 ft | 444 kts | 288° |
| 2026-04-20 07:21 | 25.81947 | 53.26629 | 35990 ft | 441 kts | 288° |
| 2026-04-20 07:21 | 25.83772 | 53.20109 | 35989 ft | 441 kts | 289° |
| 2026-04-20 07:22 | 25.86123 | 53.13834 | 35987 ft | 441 kts | 295° |
| 2026-04-20 07:22 | 25.88653 | 53.07645 | 35985 ft | 440 kts | 295° |
| 2026-04-20 07:23 | 25.91169 | 53.01443 | 35989 ft | 440 kts | 295° |
| 2026-04-20 07:23 | 25.93682 | 52.95250 | 35982 ft | 439 kts | 294° |
| 2026-04-20 07:24 | 25.96192 | 52.89058 | 35983 ft | 439 kts | 294° |
| 2026-04-20 07:24 | 25.98695 | 52.82876 | 35986 ft | 439 kts | 294° |
| 2026-04-20 07:25 | 26.01193 | 52.76695 | 35975 ft | 438 kts | 294° |
| 2026-04-20 07:25 | 26.03787 | 52.70555 | 35984 ft | 438 kts | 297° |
| 2026-04-20 07:26 | 26.06560 | 52.64526 | 35985 ft | 438 kts | 297° |
| 2026-04-20 07:26 | 26.09290 | 52.58520 | 35981 ft | 438 kts | 296° |
| 2026-04-20 07:27 | 26.12020 | 52.52451 | 35988 ft | 439 kts | 296° |
| 2026-04-20 07:27 | 26.14756 | 52.46382 | 35984 ft | 439 kts | 296° |
| 2026-04-20 07:28 | 26.17492 | 52.40314 | 35988 ft | 439 kts | 296° |
| 2026-04-20 07:28 | 26.20226 | 52.34237 | 35994 ft | 439 kts | 296° |
| 2026-04-20 07:29 | 26.22948 | 52.28151 | 35995 ft | 439 kts | 296° |
| 2026-04-20 07:29 | 26.25593 | 52.22024 | 35989 ft | 439 kts | 295° |
| 2026-04-20 07:30 | 26.28234 | 52.15888 | 35995 ft | 439 kts | 295° |
| 2026-04-20 07:30 | 26.30883 | 52.09752 | 35996 ft | 439 kts | 295° |
| 2026-04-20 07:31 | 26.33532 | 52.03617 | 36002 ft | 439 kts | 295° |
| 2026-04-20 07:31 | 26.36184 | 51.97479 | 35997 ft | 439 kts | 295° |
| 2026-04-20 07:32 | 26.38585 | 51.91227 | 36000 ft | 439 kts | 290° |
| 2026-04-20 07:32 | 26.40715 | 51.84852 | 36009 ft | 439 kts | 290° |
| 2026-04-20 07:33 | 26.42859 | 51.78481 | 36007 ft | 439 kts | 290° |
| 2026-04-20 07:33 | 26.44999 | 51.72104 | 35994 ft | 439 kts | 290° |
| 2026-04-20 07:34 | 26.47131 | 51.65733 | 35993 ft | 439 kts | 290° |
| 2026-04-20 07:34 | 26.49262 | 51.59347 | 35996 ft | 439 kts | 290° |
| 2026-04-20 07:35 | 26.52448 | 51.49766 | 36001 ft | 439 kts | 290° |
| 2026-04-20 07:35 | 26.54555 | 51.43419 | 36011 ft | 439 kts | 290° |
| 2026-04-20 07:36 | 26.56671 | 51.37033 | 36024 ft | 439 kts | 290° |
| 2026-04-20 07:36 | 26.58800 | 51.30598 | 36027 ft | 439 kts | 290° |
| 2026-04-20 07:37 | 26.60916 | 51.24205 | 36012 ft | 439 kts | 290° |
| 2026-04-20 07:37 | 26.63022 | 51.17845 | 36010 ft | 439 kts | 290° |
| 2026-04-20 07:38 | 26.65138 | 51.11444 | 36014 ft | 439 kts | 289° |
| 2026-04-20 07:38 | 26.67249 | 51.05044 | 36016 ft | 439 kts | 289° |
| 2026-04-20 07:39 | 26.69355 | 50.98625 | 36017 ft | 439 kts | 289° |
| 2026-04-20 07:39 | 26.71411 | 50.92192 | 36023 ft | 440 kts | 289° |
| 2026-04-20 07:40 | 26.73464 | 50.85748 | 36026 ft | 440 kts | 289° |
| 2026-04-20 07:40 | 26.75520 | 50.79306 | 36025 ft | 440 kts | 289° |
| 2026-04-20 07:41 | 26.77576 | 50.72854 | 36028 ft | 440 kts | 289° |
| 2026-04-20 07:41 | 26.79987 | 50.66572 | 36028 ft | 441 kts | 296° |
| 2026-04-20 07:42 | 26.83297 | 50.60767 | 36032 ft | 444 kts | 304° |
| 2026-04-20 07:42 | 26.87202 | 50.55399 | 36027 ft | 445 kts | 306° |
| 2026-04-20 07:43 | 26.91105 | 50.50027 | 36034 ft | 445 kts | 306° |
| 2026-04-20 07:43 | 26.95312 | 50.44904 | 36031 ft | 447 kts | 310° |
| 2026-04-20 07:44 | 26.99575 | 50.39835 | 36034 ft | 447 kts | 309° |
| 2026-04-20 07:44 | 27.03847 | 50.34744 | 36037 ft | 448 kts | 309° |
| 2026-04-20 07:45 | 27.08075 | 50.29677 | 36042 ft | 448 kts | 309° |
| 2026-04-20 07:45 | 27.12309 | 50.24550 | 36045 ft | 448 kts | 309° |
| 2026-04-20 07:46 | 27.16723 | 50.19589 | 36049 ft | 452 kts | 315° |
| 2026-04-20 07:46 | 27.21758 | 50.15319 | 36053 ft | 454 kts | 319° |
| 2026-04-20 07:47 | 27.26848 | 50.11112 | 36048 ft | 454 kts | 319° |
| 2026-04-20 07:47 | 27.31932 | 50.06901 | 36048 ft | 454 kts | 319° |
| 2026-04-20 07:48 | 27.37020 | 50.02684 | 36055 ft | 454 kts | 318° |
| 2026-04-20 07:48 | 27.41985 | 49.98331 | 36055 ft | 452 kts | 317° |
| 2026-04-20 07:49 | 27.46925 | 49.93942 | 36058 ft | 452 kts | 317° |
| 2026-04-20 07:49 | 27.51876 | 49.89572 | 36059 ft | 452 kts | 317° |
| 2026-04-20 07:50 | 27.56826 | 49.85209 | 36064 ft | 452 kts | 317° |
| 2026-04-20 07:50 | 27.61779 | 49.80838 | 36054 ft | 451 kts | 317° |
| 2026-04-20 07:51 | 27.66721 | 49.76471 | 36053 ft | 451 kts | 316° |
| 2026-04-20 07:51 | 27.71663 | 49.72099 | 36045 ft | 452 kts | 316° |
| 2026-04-20 07:52 | 27.76609 | 49.67718 | 36051 ft | 452 kts | 316° |
| 2026-04-20 07:52 | 27.81542 | 49.63334 | 36048 ft | 452 kts | 316° |
| 2026-04-20 07:53 | 27.86489 | 49.58912 | 36053 ft | 453 kts | 316° |
| 2026-04-20 07:53 | 27.91401 | 49.54520 | 36059 ft | 454 kts | 316° |
| 2026-04-20 07:54 | 27.96351 | 49.50090 | 36064 ft | 454 kts | 316° |
| 2026-04-20 07:54 | 28.01306 | 49.45651 | 36069 ft | 455 kts | 316° |
| 2026-04-20 07:55 | 28.06252 | 49.41186 | 36078 ft | 455 kts | 315° |
| 2026-04-20 07:55 | 28.11174 | 49.36683 | 36085 ft | 455 kts | 315° |
| 2026-04-20 07:56 | 28.16099 | 49.32179 | 36087 ft | 455 kts | 315° |
| 2026-04-20 07:56 | 28.20192 | 49.28437 | 36088 ft | 455 kts | 315° |
| 2026-04-20 07:57 | 28.25107 | 49.23938 | 36087 ft | 454 kts | 315° |
| 2026-04-20 07:57 | 28.30020 | 49.19436 | 36089 ft | 454 kts | 315° |
| 2026-04-20 07:58 | 28.34926 | 49.14937 | 36087 ft | 453 kts | 315° |
| 2026-04-20 07:58 | 28.39852 | 49.10467 | 36077 ft | 455 kts | 317° |
| 2026-04-20 07:59 | 28.45123 | 49.06424 | 36081 ft | 457 kts | 320° |
| 2026-04-20 07:59 | 28.50384 | 49.02386 | 36080 ft | 457 kts | 319° |
| 2026-04-20 08:00 | 28.55644 | 48.98344 | 36081 ft | 457 kts | 319° |
| 2026-04-20 08:00 | 28.60910 | 48.94296 | 36081 ft | 456 kts | 319° |
| 2026-04-20 08:01 | 28.66177 | 48.90245 | 36085 ft | 457 kts | 319° |
| 2026-04-20 08:01 | 28.71432 | 48.86197 | 36089 ft | 456 kts | 319° |
| 2026-04-20 08:02 | 28.76692 | 48.82140 | 36096 ft | 456 kts | 319° |
| 2026-04-20 08:02 | 28.81943 | 48.78087 | 36098 ft | 456 kts | 319° |
| 2026-04-20 08:03 | 28.87216 | 48.74051 | 36095 ft | 456 kts | 319° |
| 2026-04-20 08:03 | 28.92475 | 48.70025 | 36097 ft | 455 kts | 319° |
| 2026-04-20 08:04 | 28.97723 | 48.65998 | 36101 ft | 454 kts | 319° |
| 2026-04-20 08:04 | 29.02968 | 48.61967 | 36089 ft | 454 kts | 319° |
| 2026-04-20 08:05 | 29.08209 | 48.57933 | 36085 ft | 454 kts | 319° |
| 2026-04-20 08:05 | 29.13411 | 48.53924 | 36073 ft | 454 kts | 319° |
| 2026-04-20 08:06 | 29.18652 | 48.49881 | 36075 ft | 454 kts | 319° |
| 2026-04-20 08:06 | 29.23894 | 48.45832 | 36065 ft | 455 kts | 319° |
| 2026-04-20 08:07 | 29.29146 | 48.41770 | 36062 ft | 456 kts | 319° |
| 2026-04-20 08:07 | 29.34407 | 48.37695 | 36060 ft | 457 kts | 319° |
| 2026-04-20 08:08 | 29.39678 | 48.33608 | 36061 ft | 458 kts | 319° |
| 2026-04-20 08:08 | 29.45033 | 48.29595 | 36061 ft | 464 kts | 323° |
| 2026-04-20 08:09 | 29.50652 | 48.25931 | 36058 ft | 465 kts | 322° |
| 2026-04-20 08:09 | 29.56266 | 48.22234 | 36059 ft | 467 kts | 322° |
| 2026-04-20 08:10 | 29.61913 | 48.18511 | 36059 ft | 468 kts | 322° |
| 2026-04-20 08:10 | 29.67577 | 48.14774 | 36054 ft | 470 kts | 322° |
| 2026-04-20 08:11 | 29.73260 | 48.11019 | 36051 ft | 472 kts | 322° |
| 2026-04-20 08:11 | 29.78970 | 48.07243 | 36049 ft | 474 kts | 322° |
| 2026-04-20 08:12 | 29.84702 | 48.03447 | 36048 ft | 476 kts | 322° |
| 2026-04-20 08:12 | 29.90418 | 47.99656 | 36061 ft | 478 kts | 322° |
| 2026-04-20 08:13 | 29.96187 | 47.95825 | 36062 ft | 479 kts | 321° |
| 2026-04-20 08:13 | 30.01646 | 47.91554 | 36059 ft | 469 kts | 312° |
| 2026-04-20 08:14 | 30.06276 | 47.86403 | 36058 ft | 459 kts | 303° |
| 2026-04-20 08:14 | 30.10445 | 47.80823 | 36058 ft | 458 kts | 303° |
| 2026-04-20 08:15 | 30.14629 | 47.75266 | 36065 ft | 460 kts | 303° |
| 2026-04-20 08:15 | 30.18825 | 47.69665 | 36070 ft | 460 kts | 303° |
| 2026-04-20 08:16 | 30.23011 | 47.64063 | 36061 ft | 460 kts | 303° |
| 2026-04-20 08:16 | 30.27182 | 47.58473 | 36061 ft | 458 kts | 303° |
| 2026-04-20 08:17 | 30.31329 | 47.52906 | 36039 ft | 456 kts | 302° |
| 2026-04-20 08:17 | 30.35460 | 47.47353 | 36030 ft | 454 kts | 302° |
| 2026-04-20 08:18 | 30.39572 | 47.41816 | 36011 ft | 453 kts | 302° |
| 2026-04-20 08:18 | 30.43668 | 47.36293 | 36007 ft | 451 kts | 302° |
| 2026-04-20 08:19 | 30.47754 | 47.30777 | 35996 ft | 450 kts | 302° |
| 2026-04-20 08:19 | 30.51825 | 47.25272 | 35991 ft | 449 kts | 302° |
| 2026-04-20 08:20 | 30.55892 | 47.19765 | 35985 ft | 449 kts | 301° |
| 2026-04-20 08:20 | 30.59952 | 47.14261 | 35985 ft | 449 kts | 301° |
| 2026-04-20 08:21 | 30.64021 | 47.08740 | 35988 ft | 450 kts | 301° |
| 2026-04-20 08:21 | 30.68077 | 47.03227 | 35993 ft | 450 kts | 301° |
| 2026-04-20 08:22 | 30.72122 | 46.97722 | 36001 ft | 450 kts | 301° |
| 2026-04-20 08:22 | 30.76214 | 46.92145 | 36006 ft | 451 kts | 301° |
| 2026-04-20 08:23 | 30.80289 | 46.86584 | 36008 ft | 452 kts | 301° |
| 2026-04-20 08:23 | 30.84332 | 46.81058 | 36008 ft | 452 kts | 301° |
| 2026-04-20 08:24 | 30.88407 | 46.75481 | 36000 ft | 452 kts | 301° |
| 2026-04-20 08:24 | 30.92480 | 46.69899 | 36017 ft | 452 kts | 301° |
| 2026-04-20 08:25 | 30.96549 | 46.64313 | 36024 ft | 452 kts | 301° |
| 2026-04-20 08:25 | 31.00620 | 46.58717 | 36010 ft | 452 kts | 301° |
| 2026-04-20 08:26 | 31.04680 | 46.53128 | 36004 ft | 452 kts | 301° |
| 2026-04-20 08:26 | 31.08734 | 46.47540 | 36002 ft | 451 kts | 301° |
| 2026-04-20 08:27 | 31.12785 | 46.41947 | 35995 ft | 451 kts | 301° |
| 2026-04-20 08:27 | 31.16830 | 46.36355 | 35994 ft | 450 kts | 301° |
| 2026-04-20 08:28 | 31.20996 | 46.30860 | 35985 ft | 457 kts | 306° |
| 2026-04-20 08:28 | 31.25828 | 46.25928 | 35984 ft | 462 kts | 309° |
| 2026-04-20 08:29 | 31.30706 | 46.21026 | 35986 ft | 462 kts | 309° |
| 2026-04-20 08:29 | 31.35574 | 46.16123 | 35989 ft | 462 kts | 309° |
| 2026-04-20 08:30 | 31.40444 | 46.11219 | 35974 ft | 462 kts | 309° |
| 2026-04-20 08:30 | 31.45315 | 46.06305 | 35980 ft | 463 kts | 309° |
| 2026-04-20 08:31 | 31.50190 | 46.01382 | 35997 ft | 462 kts | 309° |
| 2026-04-20 08:31 | 31.55059 | 45.96457 | 35995 ft | 463 kts | 309° |
| 2026-04-20 08:32 | 31.59935 | 45.91519 | 35996 ft | 463 kts | 309° |
| 2026-04-20 08:32 | 31.64810 | 45.86574 | 35993 ft | 463 kts | 309° |
| 2026-04-20 08:33 | 31.72119 | 45.79147 | 35988 ft | 463 kts | 308° |
| 2026-04-20 08:34 | 31.76956 | 45.74222 | 35988 ft | 464 kts | 308° |
| 2026-04-20 08:34 | 31.81832 | 45.69252 | 35988 ft | 464 kts | 308° |
| 2026-04-20 08:35 | 31.86705 | 45.64276 | 35990 ft | 464 kts | 308° |
| 2026-04-20 08:35 | 31.91584 | 45.59287 | 35992 ft | 465 kts | 308° |
| 2026-04-20 08:36 | 31.96473 | 45.54281 | 35994 ft | 466 kts | 308° |
| 2026-04-20 08:36 | 32.01363 | 45.49266 | 35996 ft | 466 kts | 308° |
| 2026-04-20 08:37 | 32.06253 | 45.44245 | 35999 ft | 467 kts | 308° |
| 2026-04-20 08:37 | 32.11154 | 45.39205 | 36005 ft | 467 kts | 308° |
| 2026-04-20 08:38 | 32.16050 | 45.34162 | 36005 ft | 467 kts | 308° |
| 2026-04-20 08:38 | 32.20941 | 45.29118 | 35995 ft | 467 kts | 308° |
| 2026-04-20 08:39 | 32.25800 | 45.24098 | 36002 ft | 467 kts | 308° |
| 2026-04-20 08:39 | 32.30691 | 45.19038 | 36001 ft | 467 kts | 308° |
| 2026-04-20 08:40 | 32.35577 | 45.13975 | 36003 ft | 467 kts | 308° |
| 2026-04-20 08:40 | 32.40454 | 45.08915 | 36002 ft | 466 kts | 308° |
| 2026-04-20 08:41 | 32.45330 | 45.03848 | 36002 ft | 466 kts | 308° |
| 2026-04-20 08:41 | 32.50198 | 44.98781 | 36003 ft | 466 kts | 308° |
| 2026-04-20 08:42 | 32.55066 | 44.93707 | 36001 ft | 465 kts | 308° |
| 2026-04-20 08:42 | 32.59921 | 44.88639 | 36000 ft | 465 kts | 308° |
| 2026-04-20 08:43 | 32.64771 | 44.83568 | 35988 ft | 465 kts | 308° |
| 2026-04-20 08:43 | 32.68807 | 44.79343 | 35985 ft | 465 kts | 308° |
| 2026-04-20 08:44 | 32.74481 | 44.73393 | 35980 ft | 465 kts | 308° |
| 2026-04-20 08:44 | 32.79324 | 44.68307 | 35974 ft | 465 kts | 308° |
| 2026-04-20 08:45 | 32.84172 | 44.63208 | 35971 ft | 465 kts | 308° |
| 2026-04-20 08:45 | 32.88207 | 44.58958 | 35976 ft | 465 kts | 308° |
| 2026-04-20 08:46 | 32.93838 | 44.53018 | 35971 ft | 466 kts | 308° |
| 2026-04-20 08:46 | 32.98674 | 44.47909 | 35842 ft | 463 kts | 308° |
| 2026-04-20 08:47 | 33.02734 | 44.43611 | 35846 ft | 467 kts | 308° |
| 2026-04-20 08:47 | 33.07564 | 44.38492 | 35844 ft | 468 kts | 308° |
| 2026-04-20 08:48 | 33.12463 | 44.33300 | 35837 ft | 469 kts | 309° |
| 2026-04-20 08:48 | 33.17883 | 44.28813 | 36024 ft | 490 kts | 321° |
| 2026-04-20 08:48 | 33.20988 | 44.27035 | 36354 ft | 498 kts | 327° |
| 2026-04-20 08:49 | 33.24280 | 44.25621 | 36683 ft | 506 kts | 333° |
| 2026-04-20 08:49 | 33.27740 | 44.24639 | 36835 ft | 522 kts | 342° |
| 2026-04-20 08:49 | 33.31373 | 44.24188 | 36838 ft | 524 kts | 347° |
| 2026-04-20 08:50 | 33.38654 | 44.23709 | 36834 ft | 524 kts | 348° |
| 2026-04-20 08:50 | 33.45938 | 44.23149 | 36839 ft | 525 kts | 347° |
| 2026-04-20 08:51 | 33.53213 | 44.22515 | 36845 ft | 524 kts | 347° |
| 2026-04-20 08:51 | 33.60485 | 44.21866 | 36847 ft | 524 kts | 347° |
| 2026-04-20 08:52 | 33.67736 | 44.21219 | 36840 ft | 523 kts | 347° |
| 2026-04-20 08:52 | 33.74988 | 44.20571 | 36842 ft | 522 kts | 347° |
| 2026-04-20 08:53 | 33.82240 | 44.19921 | 36839 ft | 522 kts | 347° |
| 2026-04-20 08:53 | 33.89480 | 44.19272 | 36840 ft | 522 kts | 347° |
| 2026-04-20 08:54 | 33.96719 | 44.18622 | 36844 ft | 522 kts | 347° |
| 2026-04-20 08:54 | 34.03967 | 44.17970 | 36855 ft | 522 kts | 347° |
| 2026-04-20 08:55 | 34.11219 | 44.17316 | 36859 ft | 523 kts | 347° |
| 2026-04-20 08:55 | 34.18477 | 44.16661 | 36870 ft | 523 kts | 347° |
| 2026-04-20 08:56 | 34.25693 | 44.16009 | 36871 ft | 523 kts | 347° |
| 2026-04-20 08:56 | 34.32950 | 44.15352 | 36871 ft | 523 kts | 347° |
| 2026-04-20 08:57 | 34.40216 | 44.14693 | 36881 ft | 523 kts | 347° |
| 2026-04-20 08:57 | 34.47488 | 44.14130 | 36872 ft | 528 kts | 352° |
| 2026-04-20 08:58 | 34.54892 | 44.14919 | 36875 ft | 541 kts | 4° |
| 2026-04-20 08:58 | 34.62281 | 44.16617 | 36877 ft | 541 kts | 4° |
| 2026-04-20 08:59 | 34.69686 | 44.18271 | 36880 ft | 541 kts | 4° |
| 2026-04-20 08:59 | 34.77082 | 44.19942 | 36876 ft | 541 kts | 4° |
| 2026-04-20 09:00 | 34.84476 | 44.21623 | 36879 ft | 540 kts | 4° |
| 2026-04-20 09:00 | 34.91913 | 44.23318 | 36878 ft | 540 kts | 4° |
| 2026-04-20 09:01 | 34.99243 | 44.24992 | 36886 ft | 539 kts | 4° |
| 2026-04-20 09:01 | 35.06608 | 44.26676 | 36875 ft | 538 kts | 4° |
| 2026-04-20 09:02 | 35.13968 | 44.28362 | 36875 ft | 538 kts | 4° |
| 2026-04-20 09:02 | 35.21311 | 44.30048 | 36874 ft | 537 kts | 4° |
| 2026-04-20 09:03 | 35.28648 | 44.30612 | 36869 ft | 522 kts | 348° |
| 2026-04-20 09:03 | 35.35659 | 44.29018 | 36858 ft | 506 kts | 335° |
| 2026-04-20 09:04 | 35.42411 | 44.26561 | 36853 ft | 506 kts | 336° |
| 2026-04-20 09:04 | 35.49180 | 44.24131 | 36853 ft | 507 kts | 336° |
| 2026-04-20 09:05 | 35.55941 | 44.21685 | 36862 ft | 507 kts | 336° |
| 2026-04-20 09:05 | 35.62699 | 44.19229 | 36876 ft | 507 kts | 336° |
| 2026-04-20 09:06 | 35.69468 | 44.16766 | 36888 ft | 507 kts | 336° |
| 2026-04-20 09:06 | 35.76234 | 44.14299 | 36898 ft | 507 kts | 336° |
| 2026-04-20 09:07 | 35.82989 | 44.11832 | 36911 ft | 507 kts | 336° |
| 2026-04-20 09:07 | 35.89758 | 44.09355 | 36916 ft | 507 kts | 336° |
| 2026-04-20 09:08 | 35.96525 | 44.06874 | 36913 ft | 507 kts | 336° |
| 2026-04-20 09:08 | 36.03291 | 44.04389 | 36906 ft | 507 kts | 336° |
| 2026-04-20 09:09 | 36.10043 | 44.01905 | 36895 ft | 507 kts | 336° |
| 2026-04-20 09:09 | 36.16801 | 43.99414 | 36897 ft | 507 kts | 336° |
| 2026-04-20 09:09 | 36.20051 | 43.97858 | 36894 ft | 496 kts | 326° |
| 2026-04-20 09:10 | 36.22978 | 43.95684 | 36884 ft | 486 kts | 316° |
| 2026-04-20 09:10 | 36.27667 | 43.89934 | 36897 ft | 466 kts | 299° |
| 2026-04-20 09:11 | 36.31114 | 43.83211 | 36887 ft | 462 kts | 295° |
| 2026-04-20 09:11 | 36.34543 | 43.76474 | 36895 ft | 462 kts | 295° |
| 2026-04-20 09:12 | 36.37962 | 43.69727 | 36902 ft | 462 kts | 295° |
| 2026-04-20 09:12 | 36.41372 | 43.62969 | 36909 ft | 462 kts | 295° |
| 2026-04-20 09:13 | 36.44778 | 43.56203 | 36916 ft | 462 kts | 295° |
| 2026-04-20 09:13 | 36.48180 | 43.49431 | 36920 ft | 462 kts | 295° |
| 2026-04-20 09:14 | 36.51585 | 43.42636 | 36920 ft | 463 kts | 295° |
| 2026-04-20 09:14 | 36.54989 | 43.35833 | 36925 ft | 464 kts | 295° |
| 2026-04-20 09:15 | 36.58374 | 43.29057 | 36925 ft | 464 kts | 295° |
| 2026-04-20 09:15 | 36.61774 | 43.22237 | 36928 ft | 464 kts | 295° |
| 2026-04-20 09:16 | 36.65169 | 43.15412 | 36924 ft | 464 kts | 295° |
| 2026-04-20 09:16 | 36.68558 | 43.08585 | 36920 ft | 464 kts | 295° |
| 2026-04-20 09:17 | 36.71947 | 43.01743 | 36920 ft | 464 kts | 295° |
| 2026-04-20 09:17 | 36.75615 | 42.95081 | 36912 ft | 473 kts | 305° |
| 2026-04-20 09:18 | 36.80733 | 42.89720 | 36910 ft | 491 kts | 322° |
| 2026-04-20 09:18 | 36.86977 | 42.86016 | 36907 ft | 500 kts | 329° |
| 2026-04-20 09:19 | 36.93336 | 42.82508 | 36911 ft | 500 kts | 329° |
| 2026-04-20 09:19 | 36.99700 | 42.78979 | 36925 ft | 501 kts | 329° |
| 2026-04-20 09:20 | 37.06081 | 42.75441 | 36914 ft | 501 kts | 329° |
| 2026-04-20 09:20 | 37.12451 | 42.71904 | 36914 ft | 501 kts | 329° |
| 2026-04-20 09:21 | 37.18832 | 42.68353 | 36921 ft | 502 kts | 329° |
| 2026-04-20 09:21 | 37.24883 | 42.64182 | 36927 ft | 492 kts | 319° |
| 2026-04-20 09:22 | 37.30182 | 42.58877 | 36921 ft | 483 kts | 310° |
| 2026-04-20 09:22 | 37.35144 | 42.53170 | 36930 ft | 484 kts | 311° |
| 2026-04-20 09:23 | 37.40130 | 42.47465 | 36931 ft | 484 kts | 311° |
| 2026-04-20 09:23 | 37.45093 | 42.41750 | 36923 ft | 484 kts | 311° |
| 2026-04-20 09:24 | 37.50062 | 42.36009 | 36927 ft | 485 kts | 311° |
| 2026-04-20 09:24 | 37.55025 | 42.30262 | 36927 ft | 485 kts | 311° |
| 2026-04-20 09:25 | 37.59967 | 42.24531 | 36928 ft | 486 kts | 311° |
| 2026-04-20 09:25 | 37.64968 | 42.18724 | 36929 ft | 485 kts | 311° |
| 2026-04-20 09:26 | 37.69899 | 42.12981 | 36912 ft | 485 kts | 310° |
| 2026-04-20 09:26 | 37.74860 | 42.07192 | 36907 ft | 486 kts | 310° |
| 2026-04-20 09:27 | 37.79824 | 42.01391 | 36910 ft | 486 kts | 310° |
| 2026-04-20 09:27 | 37.84779 | 41.95589 | 36910 ft | 486 kts | 310° |
| 2026-04-20 09:28 | 37.89778 | 41.89724 | 36908 ft | 486 kts | 310° |
| 2026-04-20 09:28 | 37.94308 | 41.83539 | 36903 ft | 481 kts | 304° |
| 2026-04-20 09:29 | 37.98740 | 41.77183 | 36909 ft | 482 kts | 305° |
| 2026-04-20 09:29 | 38.03178 | 41.70820 | 36910 ft | 482 kts | 305° |
| 2026-04-20 09:30 | 38.07615 | 41.64432 | 36910 ft | 483 kts | 305° |
| 2026-04-20 09:30 | 38.12047 | 41.58034 | 36910 ft | 483 kts | 305° |
| 2026-04-20 09:31 | 38.15730 | 41.52707 | 36910 ft | 483 kts | 305° |
| 2026-04-20 09:31 | 38.20167 | 41.46277 | 36903 ft | 484 kts | 305° |
| 2026-04-20 09:32 | 38.24597 | 41.39844 | 36914 ft | 483 kts | 305° |
| 2026-04-20 09:32 | 38.29032 | 41.33391 | 36915 ft | 484 kts | 305° |
| 2026-04-20 09:33 | 38.33468 | 41.26926 | 36901 ft | 484 kts | 305° |
| 2026-04-20 09:33 | 38.37895 | 41.20460 | 36902 ft | 485 kts | 305° |
| 2026-04-20 09:34 | 38.42330 | 41.13968 | 36911 ft | 485 kts | 305° |
| 2026-04-20 09:34 | 38.48946 | 41.04193 | 36897 ft | 485 kts | 304° |
| 2026-04-20 09:35 | 38.53267 | 40.97548 | 36897 ft | 486 kts | 304° |
| 2026-04-20 09:35 | 38.57589 | 40.90906 | 36894 ft | 487 kts | 304° |
| 2026-04-20 09:36 | 38.61919 | 40.84258 | 36898 ft | 488 kts | 304° |
| 2026-04-20 09:36 | 38.66287 | 40.77601 | 36901 ft | 489 kts | 305° |
| 2026-04-20 09:37 | 38.70700 | 40.70959 | 36897 ft | 490 kts | 305° |
| 2026-04-20 09:37 | 38.75104 | 40.64304 | 36898 ft | 490 kts | 305° |
| 2026-04-20 09:38 | 38.79507 | 40.57626 | 36894 ft | 490 kts | 305° |
| 2026-04-20 09:38 | 38.83868 | 40.50995 | 36893 ft | 489 kts | 305° |
| 2026-04-20 09:39 | 38.88274 | 40.44281 | 36884 ft | 488 kts | 305° |
| 2026-04-20 09:39 | 38.92617 | 40.37652 | 36864 ft | 488 kts | 305° |
| 2026-04-20 09:40 | 38.96976 | 40.30981 | 36861 ft | 488 kts | 305° |
| 2026-04-20 09:40 | 39.01334 | 40.24299 | 36866 ft | 487 kts | 305° |
| 2026-04-20 09:41 | 39.05691 | 40.17602 | 36879 ft | 489 kts | 305° |
| 2026-04-20 09:41 | 39.10059 | 40.10874 | 36878 ft | 490 kts | 305° |
| 2026-04-20 09:42 | 39.14432 | 40.04127 | 36895 ft | 492 kts | 305° |
| 2026-04-20 09:42 | 39.18814 | 39.97354 | 36906 ft | 491 kts | 305° |
| 2026-04-20 09:43 | 39.23175 | 39.90591 | 36889 ft | 490 kts | 305° |
| 2026-04-20 09:43 | 39.27527 | 39.83824 | 36886 ft | 490 kts | 305° |
| 2026-04-20 09:44 | 39.31869 | 39.77059 | 36878 ft | 489 kts | 305° |
| 2026-04-20 09:44 | 39.36211 | 39.70282 | 36885 ft | 489 kts | 305° |
| 2026-04-20 09:45 | 39.40544 | 39.63501 | 36902 ft | 489 kts | 305° |
| 2026-04-20 09:45 | 39.45033 | 39.56878 | 36933 ft | 495 kts | 314° |
| 2026-04-20 09:46 | 39.50849 | 39.52073 | 36955 ft | 507 kts | 334° |
| 2026-04-20 09:46 | 39.57817 | 39.49993 | 36979 ft | 518 kts | 354° |
| 2026-04-20 09:47 | 39.61427 | 39.50141 | 36996 ft | 522 kts | 5° |
| 2026-04-20 09:47 | 39.64998 | 39.51065 | 37000 ft | 525 kts | 12° |
| 2026-04-20 09:47 | 39.72108 | 39.53183 | 36994 ft | 523 kts | 6° |
| 2026-04-20 09:48 | 39.79291 | 39.54606 | 36996 ft | 523 kts | 6° |
| 2026-04-20 09:48 | 39.86422 | 39.56068 | 36989 ft | 522 kts | 6° |
| 2026-04-20 09:49 | 39.93603 | 39.57539 | 36984 ft | 521 kts | 6° |
| 2026-04-20 09:49 | 40.00763 | 39.59033 | 36982 ft | 521 kts | 7° |
| 2026-04-20 09:50 | 40.07918 | 39.60560 | 36982 ft | 521 kts | 7° |
| 2026-04-20 09:50 | 40.15068 | 39.62065 | 36999 ft | 520 kts | 6° |
| 2026-04-20 09:51 | 40.22217 | 39.63546 | 37002 ft | 520 kts | 7° |
| 2026-04-20 09:51 | 40.29361 | 39.65033 | 37010 ft | 520 kts | 7° |
| 2026-04-20 09:52 | 40.36500 | 39.66524 | 37025 ft | 519 kts | 7° |
| 2026-04-20 09:52 | 40.43622 | 39.68011 | 37027 ft | 518 kts | 6° |
| 2026-04-20 09:53 | 40.50757 | 39.69353 | 37038 ft | 518 kts | 6° |
| 2026-04-20 09:53 | 40.57880 | 39.70789 | 37053 ft | 518 kts | 7° |
| 2026-04-20 09:54 | 40.65002 | 39.72297 | 37066 ft | 518 kts | 7° |
| 2026-04-20 09:54 | 40.72129 | 39.73795 | 37090 ft | 519 kts | 7° |
| 2026-04-20 09:55 | 40.79249 | 39.75289 | 37106 ft | 519 kts | 7° |
| 2026-04-20 09:55 | 40.86389 | 39.76790 | 37114 ft | 520 kts | 7° |
| 2026-04-20 09:56 | 40.93534 | 39.78282 | 37106 ft | 519 kts | 5° |
| 2026-04-20 09:56 | 41.00650 | 39.78527 | 37110 ft | 513 kts | 352° |
| 2026-04-20 09:57 | 41.07640 | 39.76893 | 37108 ft | 508 kts | 342° |
| 2026-04-20 09:57 | 41.14504 | 39.74668 | 37112 ft | 508 kts | 343° |
| 2026-04-20 09:58 | 41.21378 | 39.72453 | 37112 ft | 508 kts | 343° |
| 2026-04-20 09:58 | 41.28243 | 39.70215 | 37109 ft | 507 kts | 343° |
| 2026-04-20 09:59 | 41.35088 | 39.67973 | 37099 ft | 507 kts | 343° |
| 2026-04-20 09:59 | 41.41937 | 39.65724 | 37094 ft | 506 kts | 343° |
| 2026-04-20 10:00 | 41.48781 | 39.63472 | 37093 ft | 506 kts | 343° |
| 2026-04-20 10:00 | 41.55597 | 39.61217 | 37091 ft | 505 kts | 343° |
| 2026-04-20 10:01 | 41.62417 | 39.58949 | 37091 ft | 505 kts | 343° |
| 2026-04-20 10:01 | 41.69237 | 39.56688 | 37079 ft | 504 kts | 343° |
| 2026-04-20 10:02 | 41.76038 | 39.54449 | 37079 ft | 503 kts | 343° |
| 2026-04-20 10:02 | 41.82835 | 39.52204 | 37078 ft | 503 kts | 343° |
| 2026-04-20 10:03 | 41.89619 | 39.49951 | 37068 ft | 502 kts | 343° |
| 2026-04-20 10:03 | 41.96386 | 39.47690 | 37068 ft | 501 kts | 343° |
| 2026-04-20 10:04 | 42.03156 | 39.45424 | 37066 ft | 501 kts | 343° |
| 2026-04-20 10:04 | 42.09918 | 39.43157 | 37061 ft | 501 kts | 343° |
| 2026-04-20 10:05 | 42.16680 | 39.40885 | 37063 ft | 501 kts | 343° |
| 2026-04-20 10:05 | 42.23473 | 39.38813 | 37059 ft | 502 kts | 346° |
| 2026-04-20 10:06 | 42.30336 | 39.37090 | 37054 ft | 502 kts | 346° |
| 2026-04-20 10:06 | 42.37195 | 39.35312 | 37055 ft | 501 kts | 346° |
| 2026-04-20 10:07 | 42.44041 | 39.33492 | 37056 ft | 501 kts | 346° |
| 2026-04-20 10:07 | 42.50839 | 39.31674 | 37056 ft | 501 kts | 346° |
| 2026-04-20 10:08 | 42.57726 | 39.29829 | 37061 ft | 501 kts | 346° |
| 2026-04-20 10:08 | 42.64563 | 39.28004 | 37057 ft | 501 kts | 347° |
| 2026-04-20 10:09 | 42.71493 | 39.27251 | 37052 ft | 506 kts | 358° |
| 2026-04-20 10:09 | 42.78532 | 39.27634 | 37052 ft | 506 kts | 359° |
| 2026-04-20 10:10 | 42.85571 | 39.27980 | 37050 ft | 506 kts | 359° |
| 2026-04-20 10:10 | 42.92612 | 39.28348 | 37052 ft | 506 kts | 359° |
| 2026-04-20 10:11 | 42.99655 | 39.28729 | 37048 ft | 506 kts | 359° |
| 2026-04-20 10:11 | 43.06696 | 39.29112 | 37042 ft | 507 kts | 359° |
| 2026-04-20 10:12 | 43.13737 | 39.29496 | 37040 ft | 507 kts | 359° |
| 2026-04-20 10:12 | 43.20789 | 39.29881 | 37044 ft | 507 kts | 359° |
| 2026-04-20 10:13 | 43.27829 | 39.30266 | 37043 ft | 507 kts | 359° |
| 2026-04-20 10:13 | 43.34887 | 39.30659 | 37046 ft | 507 kts | 359° |
| 2026-04-20 10:14 | 43.41940 | 39.31053 | 37037 ft | 507 kts | 359° |
| 2026-04-20 10:14 | 43.48993 | 39.31443 | 37040 ft | 507 kts | 359° |
| 2026-04-20 10:15 | 43.56048 | 39.31832 | 37033 ft | 507 kts | 359° |
| 2026-04-20 10:15 | 43.63105 | 39.32222 | 37039 ft | 507 kts | 359° |
| 2026-04-20 10:16 | 43.70162 | 39.32614 | 37035 ft | 507 kts | 359° |
| 2026-04-20 10:16 | 43.77220 | 39.33007 | 37032 ft | 507 kts | 359° |
| 2026-04-20 10:17 | 43.84276 | 39.33400 | 37036 ft | 507 kts | 359° |
| 2026-04-20 10:17 | 43.91326 | 39.33928 | 37040 ft | 509 kts | 4° |
| 2026-04-20 10:18 | 43.97140 | 39.35283 | 37016 ft | 511 kts | 7° |
| 2026-04-20 10:18 | 44.04143 | 39.36956 | 37015 ft | 511 kts | 7° |
| 2026-04-20 10:19 | 44.11154 | 39.38634 | 37006 ft | 511 kts | 7° |
| 2026-04-20 10:19 | 44.18166 | 39.40330 | 37016 ft | 511 kts | 7° |
| 2026-04-20 10:20 | 44.25168 | 39.42033 | 37012 ft | 512 kts | 7° |
| 2026-04-20 10:20 | 44.32177 | 39.43740 | 37008 ft | 512 kts | 7° |
| 2026-04-20 10:21 | 44.39204 | 39.45421 | 37006 ft | 511 kts | 5° |
| 2026-04-20 10:21 | 44.46255 | 39.46721 | 37004 ft | 511 kts | 4° |
| 2026-04-20 10:22 | 44.53302 | 39.48000 | 37004 ft | 511 kts | 5° |
| 2026-04-20 10:22 | 44.60348 | 39.49529 | 37003 ft | 512 kts | 6° |
| 2026-04-20 10:23 | 44.67334 | 39.51132 | 37003 ft | 512 kts | 6° |
| 2026-04-20 10:23 | 44.74381 | 39.52721 | 37008 ft | 513 kts | 6° |
| 2026-04-20 10:24 | 44.81470 | 39.54313 | 37010 ft | 513 kts | 6° |
| 2026-04-20 10:24 | 44.88460 | 39.55885 | 37015 ft | 513 kts | 6° |
| 2026-04-20 10:25 | 44.95517 | 39.57497 | 37009 ft | 514 kts | 8° |
| 2026-04-20 10:25 | 45.02466 | 39.60014 | 37005 ft | 516 kts | 12° |
| 2026-04-20 10:26 | 45.09394 | 39.62605 | 37007 ft | 516 kts | 12° |
| 2026-04-20 10:26 | 45.16338 | 39.65212 | 37003 ft | 516 kts | 12° |
| 2026-04-20 10:27 | 45.23338 | 39.67265 | 36994 ft | 513 kts | 3° |
| 2026-04-20 10:27 | 45.30443 | 39.67835 | 37001 ft | 511 kts | 360° |
| 2026-04-20 10:28 | 45.37538 | 39.68354 | 37000 ft | 511 kts | 360° |
| 2026-04-20 10:28 | 45.44649 | 39.68860 | 37005 ft | 512 kts | 360° |
| 2026-04-20 10:29 | 45.51767 | 39.69352 | 37002 ft | 512 kts | 360° |
| 2026-04-20 10:29 | 45.58885 | 39.69836 | 37006 ft | 512 kts | 359° |
| 2026-04-20 10:30 | 45.66009 | 39.70315 | 37001 ft | 512 kts | 359° |
| 2026-04-20 10:30 | 45.73139 | 39.70796 | 37003 ft | 513 kts | 359° |
| 2026-04-20 10:31 | 45.80220 | 39.71277 | 36995 ft | 513 kts | 359° |
| 2026-04-20 10:31 | 45.87396 | 39.71765 | 36997 ft | 513 kts | 359° |
| 2026-04-20 10:32 | 45.94519 | 39.72252 | 36993 ft | 513 kts | 359° |
| 2026-04-20 10:32 | 46.01653 | 39.72742 | 36995 ft | 513 kts | 359° |
| 2026-04-20 10:33 | 46.08784 | 39.73233 | 36989 ft | 513 kts | 359° |
| 2026-04-20 10:33 | 46.15871 | 39.73721 | 36990 ft | 513 kts | 359° |
| 2026-04-20 10:34 | 46.23004 | 39.74214 | 36991 ft | 513 kts | 359° |
| 2026-04-20 10:35 | 46.33700 | 39.74956 | 36990 ft | 513 kts | 359° |
| 2026-04-20 10:35 | 46.40830 | 39.75500 | 37035 ft | 513 kts | 0° |
| 2026-04-20 10:36 | 46.47945 | 39.76143 | 37014 ft | 511 kts | 0° |
| 2026-04-20 10:36 | 46.55031 | 39.76774 | 36996 ft | 509 kts | 0° |
| 2026-04-20 10:37 | 46.62095 | 39.77393 | 36987 ft | 508 kts | 0° |
| 2026-04-20 10:37 | 46.69156 | 39.78012 | 36979 ft | 507 kts | 0° |
| 2026-04-20 10:38 | 46.76196 | 39.78631 | 36975 ft | 507 kts | 0° |
| 2026-04-20 10:38 | 46.83228 | 39.79251 | 36967 ft | 506 kts | 0° |
| 2026-04-20 10:39 | 46.90271 | 39.79873 | 36964 ft | 506 kts | 0° |
| 2026-04-20 10:39 | 46.97302 | 39.80496 | 36960 ft | 507 kts | 0° |
| 2026-04-20 10:40 | 47.04336 | 39.81121 | 36955 ft | 507 kts | 0° |
| 2026-04-20 10:40 | 47.11383 | 39.81749 | 36958 ft | 507 kts | 0° |
| 2026-04-20 10:41 | 47.18439 | 39.82457 | 36964 ft | 509 kts | 4° |
| 2026-04-20 10:41 | 47.25415 | 39.84555 | 36966 ft | 513 kts | 11° |